Wetterdaten: Woche 18.07.22 - 24.07.22 (KW29)
Datum Zeit Temp. Aussen Temp. o. S. Temp +5cm Feuchte Auss Luftdruck Regen Sonnenschein Regendauer Solar Windben Empfang
18.07.2022 00:00 18,8 C 17,2 C 13,7 C 71 % 1024,8 hPa 0,0 l/m 0,00 h 0,00 h 0 W/m 0,0 km/h (0 Bft) 98,54 %
18.07.2022 01:00 17,5 C 16,3 C 12,8 C 75 % 1024,6 hPa 0,0 l/m 0,00 h 0,00 h 0 W/m 0,0 km/h (0 Bft) 95,99 %
18.07.2022 02:00 16,6 C 15,5 C 12,2 C 79 % 1024,5 hPa 0,0 l/m 0,00 h 0,00 h 0 W/m 0,0 km/h (0 Bft) 97,50 %
18.07.2022 03:00 16,0 C 14,8 C 11,5 C 81 % 1024,2 hPa 0,0 l/m 0,00 h 0,00 h 0 W/m 0,0 km/h (0 Bft) 97,65 %
18.07.2022 04:00 15,2 C 14,1 C 11,0 C 83 % 1024,1 hPa 0,0 l/m 0,00 h 0,00 h 0 W/m 0,0 km/h (0 Bft) 98,57 %
18.07.2022 05:00 14,5 C 13,5 C 10,6 C 84 % 1023,9 hPa 0,0 l/m 0,00 h 0,00 h 6 W/m 0,0 km/h (0 Bft) 95,91 %
18.07.2022 06:00 14,5 C 14,6 C 11,3 C 85 % 1023,8 hPa 0,0 l/m 0,00 h 0,00 h 25 W/m 0,7 km/h (0 Bft) 96,85 %
18.07.2022 07:00 16,4 C 16,9 C 13,3 C 78 % 1023,6 hPa 0,0 l/m 0,00 h 0,00 h 55 W/m 4,4 km/h (1 Bft) 99,29 %
18.07.2022 08:00 19,9 C 21,6 C 16,4 C 66 % 1023,4 hPa 0,0 l/m 0,93 h 0,00 h 347 W/m 10,2 km/h (2 Bft) 95,30 %
18.07.2022 09:00 23,1 C 27,4 C 21,6 C 57 % 1023,2 hPa 0,0 l/m 1,00 h 0,00 h 516 W/m 10,3 km/h (2 Bft) 96,73 %
18.07.2022 10:00 25,7 C 27,7 C 23,0 C 52 % 1022,9 hPa 0,0 l/m 1,00 h 0,00 h 691 W/m 8,9 km/h (2 Bft) 98,87 %
18.07.2022 11:00 28,2 C 31,1 C 25,4 C 45 % 1022,8 hPa 0,0 l/m 1,00 h 0,00 h 805 W/m 7,8 km/h (2 Bft) 96,29 %
18.07.2022 12:00 30,2 C 32,2 C 30,7 C 40 % 1022,6 hPa 0,0 l/m 1,00 h 0,00 h 834 W/m 8,3 km/h (2 Bft) 97,97 %
18.07.2022 13:00 31,9 C 33,3 C 29,2 C 37 % 1022,2 hPa 0,0 l/m 1,00 h 0,00 h 880 W/m 9,4 km/h (2 Bft) 98,44 %
18.07.2022 14:00 33,1 C 35,5 C 29,0 C 35 % 1021,6 hPa 0,0 l/m 1,00 h 0,00 h 920 W/m 10,2 km/h (2 Bft) 95,94 %
18.07.2022 15:00 34,0 C 36,3 C 28,1 C 35 % 1021,1 hPa 0,0 l/m 1,00 h 0,00 h 825 W/m 10,4 km/h (2 Bft) 99,00 %
18.07.2022 16:00 34,5 C 38,8 C 28,7 C 34 % 1020,7 hPa 0,0 l/m 1,00 h 0,00 h 732 W/m 10,2 km/h (2 Bft) 97,01 %
18.07.2022 17:00 35,1 C 40,4 C 29,4 C 33 % 1020,3 hPa 0,0 l/m 1,00 h 0,00 h 604 W/m 9,3 km/h (2 Bft) 97,31 %
18.07.2022 18:00 35,1 C 40,2 C 29,4 C 33 % 1019,7 hPa 0,0 l/m 1,00 h 0,00 h 433 W/m 7,3 km/h (2 Bft) 97,80 %
18.07.2022 19:00 34,5 C 34,7 C 27,7 C 35 % 1019,5 hPa 0,0 l/m 0,87 h 0,00 h 231 W/m 6,9 km/h (2 Bft) 96,31 %
18.07.2022 20:00 32,2 C 29,5 C 24,1 C 42 % 1019,3 hPa 0,0 l/m 0,00 h 0,00 h 36 W/m 1,6 km/h (1 Bft) 97,01 %
18.07.2022 21:00 29,5 C 26,3 C 21,3 C 52 % 1019,2 hPa 0,0 l/m 0,00 h 0,00 h 11 W/m 0,1 km/h (0 Bft) 99,48 %
18.07.2022 22:00 26,3 C 23,5 C 19,2 C 61 % 1019,4 hPa 0,0 l/m 0,00 h 0,00 h 0 W/m 0,0 km/h (0 Bft) 96,05 %
18.07.2022 23:00 24,0 C 21,9 C 17,9 C 66 % 1019,3 hPa 0,0 l/m 0,00 h 0,00 h 0 W/m 0,0 km/h (0 Bft) 98,00 %
19.07.2022 00:00 22,4 C 20,6 C 16,9 C 71 % 1019,3 hPa 0,0 l/m 0,00 h 0,00 h 0 W/m 0,0 km/h (0 Bft) 98,68 %
19.07.2022 01:00 21,1 C 19,4 C 16,1 C 76 % 1019,1 hPa 0,0 l/m 0,00 h 0,00 h 0 W/m 0,0 km/h (0 Bft) 96,30 %
19.07.2022 02:00 20,0 C 18,7 C 15,4 C 78 % 1018,8 hPa 0,0 l/m 0,00 h 0,00 h 0 W/m 0,0 km/h (0 Bft) 98,00 %
19.07.2022 03:00 19,2 C 17,9 C 14,8 C 81 % 1018,5 hPa 0,0 l/m 0,00 h 0,00 h 0 W/m 0,0 km/h (0 Bft) 98,82 %
19.07.2022 04:00 18,7 C 17,4 C 14,3 C 84 % 1018,4 hPa 0,0 l/m 0,00 h 0,00 h 0 W/m 0,0 km/h (0 Bft) 96,58 %
19.07.2022 05:00 18,2 C 17,7 C 14,4 C 83 % 1018,3 hPa 0,0 l/m 0,00 h 0,00 h 6 W/m 0,0 km/h (0 Bft) 97,37 %
19.07.2022 06:00 18,5 C 18,0 C 14,6 C 81 % 1018,3 hPa 0,0 l/m 0,00 h 0,00 h 23 W/m 0,0 km/h (0 Bft) 98,03 %
19.07.2022 07:00 19,5 C 19,9 C 16,2 C 76 % 1018,3 hPa 0,0 l/m 0,00 h 0,00 h 49 W/m 0,7 km/h (0 Bft) 97,75 %
19.07.2022 08:00 22,9 C 24,9 C 19,2 C 64 % 1018,3 hPa 0,0 l/m 0,97 h 0,00 h 319 W/m 7,5 km/h (2 Bft) 98,64 %
19.07.2022 09:00 26,9 C 30,9 C 24,8 C 53 % 1018,4 hPa 0,0 l/m 1,00 h 0,00 h 495 W/m 9,0 km/h (2 Bft) 96,44 %
19.07.2022 10:00 29,8 C 31,3 C 26,3 C 46 % 1018,1 hPa 0,0 l/m 1,00 h 0,00 h 649 W/m 9,8 km/h (2 Bft) 97,52 %
19.07.2022 11:00 32,6 C 34,6 C 28,3 C 40 % 1017,8 hPa 0,0 l/m 1,00 h 0,00 h 775 W/m 9,2 km/h (2 Bft) 97,75 %
19.07.2022 12:00 35,2 C 36,4 C 34,8 C 34 % 1017,3 hPa 0,0 l/m 1,00 h 0,00 h 856 W/m 12,2 km/h (2 Bft) 98,68 %
19.07.2022 13:00 36,5 C 37,0 C 32,7 C 32 % 1016,8 hPa 0,0 l/m 1,00 h 0,00 h 892 W/m 14,0 km/h (3 Bft) 96,65 %
19.07.2022 14:00 37,7 C 39,1 C 32,6 C 29 % 1016,1 hPa 0,0 l/m 1,00 h 0,00 h 888 W/m 13,1 km/h (3 Bft) 97,79 %
19.07.2022 15:00 38,5 C 39,8 C 32,4 C 28 % 1015,6 hPa 0,0 l/m 1,00 h 0,00 h 835 W/m 15,2 km/h (3 Bft) 98,08 %
19.07.2022 16:00 38,8 C 41,8 C 33,0 C 27 % 1014,9 hPa 0,0 l/m 1,00 h 0,00 h 740 W/m 13,9 km/h (3 Bft) 96,44 %
19.07.2022 17:00 39,0 C 42,4 C 33,5 C 26 % 1014,3 hPa 0,0 l/m 1,00 h 0,00 h 601 W/m 14,8 km/h (3 Bft) 98,65 %
19.07.2022 18:00 38,6 C 41,9 C 32,8 C 27 % 1013,7 hPa 0,0 l/m 1,00 h 0,00 h 436 W/m 12,7 km/h (3 Bft) 98,08 %
19.07.2022 19:00 37,6 C 37,5 C 31,3 C 28 % 1013,3 hPa 0,0 l/m 0,83 h 0,00 h 236 W/m 11,4 km/h (2 Bft) 94,95 %
19.07.2022 20:00 35,4 C 33,5 C 28,9 C 31 % 1013,3 hPa 0,0 l/m 0,00 h 0,00 h 33 W/m 7,9 km/h (2 Bft) 96,15 %
19.07.2022 21:00 32,4 C 29,6 C 24,4 C 40 % 1013,4 hPa 0,0 l/m 0,00 h 0,00 h 10 W/m 2,2 km/h (1 Bft) 97,94 %
19.07.2022 22:00 29,2 C 26,7 C 22,1 C 48 % 1013,5 hPa 0,0 l/m 0,00 h 0,00 h 0 W/m 1,1 km/h (0 Bft) 98,08 %
19.07.2022 23:00 27,0 C 25,4 C 21,3 C 50 % 1013,5 hPa 0,0 l/m 0,00 h 0,00 h 0 W/m 0,0 km/h (0 Bft) 98,65 %
20.07.2022 00:00 26,6 C 25,3 C 21,0 C 49 % 1013,6 hPa 0,0 l/m 0,00 h 0,00 h 0 W/m 1,4 km/h (1 Bft) 94,60 %
20.07.2022 01:00 25,9 C 24,6 C 20,3 C 50 % 1013,4 hPa 0,0 l/m 0,00 h 0,00 h 0 W/m 3,5 km/h (1 Bft) 99,37 %
20.07.2022 02:00 25,7 C 24,5 C 20,2 C 49 % 1013,2 hPa 0,0 l/m 0,00 h 0,00 h 0 W/m 2,8 km/h (1 Bft) 97,94 %
20.07.2022 03:00 24,7 C 23,3 C 19,1 C 52 % 1012,9 hPa 0,0 l/m 0,00 h 0,00 h 0 W/m 3,2 km/h (1 Bft) 96,23 %
20.07.2022 04:00 24,0 C 22,9 C 19,4 C 54 % 1012,8 hPa 0,0 l/m 0,00 h 0,00 h 0 W/m 4,5 km/h (1 Bft) 97,82 %
20.07.2022 05:00 23,6 C 22,4 C 18,9 C 55 % 1013,5 hPa 0,0 l/m 0,00 h 0,00 h 6 W/m 6,0 km/h (2 Bft) 98,08 %
20.07.2022 06:00 23,2 C 22,3 C 18,7 C 57 % 1014,3 hPa 0,0 l/m 0,00 h 0,00 h 21 W/m 9,2 km/h (2 Bft) 95,92 %
20.07.2022 07:00 23,5 C 22,8 C 19,1 C 64 % 1015,3 hPa 0,0 l/m 0,00 h 0,00 h 49 W/m 6,6 km/h (2 Bft) 99,79 %
20.07.2022 08:00 24,6 C 24,6 C 20,5 C 66 % 1016,2 hPa 0,0 l/m 0,63 h 0,00 h 226 W/m 11,3 km/h (2 Bft) 96,58 %
20.07.2022 09:00 25,5 C 25,8 C 21,7 C 64 % 1017,3 hPa 0,0 l/m 0,23 h 0,00 h 259 W/m 14,3 km/h (3 Bft) 98,06 %
20.07.2022 10:00 26,2 C 26,5 C 22,5 C 62 % 1018,0 hPa 0,0 l/m 0,57 h 0,00 h 418 W/m 13,8 km/h (3 Bft) 96,98 %
20.07.2022 11:00 26,6 C 27,2 C 23,1 C 62 % 1017,6 hPa 0,0 l/m 0,63 h 0,00 h 457 W/m 12,6 km/h (3 Bft) 98,93 %
20.07.2022 12:00 28,4 C 29,5 C 27,7 C 58 % 1018,3 hPa 0,0 l/m 1,00 h 0,00 h 745 W/m 13,7 km/h (3 Bft) 97,06 %
20.07.2022 13:00 29,8 C 30,7 C 26,7 C 53 % 1018,0 hPa 0,0 l/m 0,93 h 0,00 h 779 W/m 13,3 km/h (3 Bft) 97,42 %
20.07.2022 14:00 30,1 C 31,6 C 26,3 C 52 % 1017,8 hPa 0,0 l/m 0,78 h 0,00 h 769 W/m 15,2 km/h (3 Bft) 98,40 %
20.07.2022 15:00 30,5 C 32,1 C 26,4 C 52 % 1017,7 hPa 0,0 l/m 0,87 h 0,00 h 709 W/m 13,2 km/h (3 Bft) 97,26 %
20.07.2022 16:00 31,2 C 33,3 C 26,8 C 50 % 1017,4 hPa 0,0 l/m 0,80 h 0,00 h 569 W/m 10,7 km/h (2 Bft) 97,30 %
20.07.2022 17:00 31,5 C 34,6 C 27,1 C 50 % 1016,9 hPa 0,0 l/m 0,97 h 0,00 h 517 W/m 9,2 km/h (2 Bft) 99,22 %
20.07.2022 18:00 31,3 C 33,6 C 26,8 C 50 % 1016,6 hPa 0,0 l/m 0,70 h 0,00 h 314 W/m 12,7 km/h (3 Bft) 95,16 %
20.07.2022 19:00 28,4 C 27,4 C 23,9 C 54 % 1016,8 hPa 0,0 l/m 0,00 h 0,00 h 64 W/m 14,9 km/h (3 Bft) 98,79 %
20.07.2022 20:00 27,6 C 26,6 C 23,0 C 60 % 1016,7 hPa 0,0 l/m 0,00 h 0,03 h 23 W/m 12,2 km/h (3 Bft) 98,72 %
20.07.2022 21:00 26,4 C 25,4 C 21,9 C 64 % 1017,0 hPa 0,0 l/m 0,00 h 0,00 h 10 W/m 11,6 km/h (2 Bft) 95,87 %
20.07.2022 22:00 25,5 C 24,3 C 20,3 C 69 % 1017,9 hPa 0,2 l/m 0,00 h 0,37 h 0 W/m 10,4 km/h (2 Bft) 98,44 %
20.07.2022 23:00 22,6 C 19,9 C 16,0 C 83 % 1019,2 hPa 1,8 l/m 0,00 h 0,77 h 0 W/m 4,9 km/h (1 Bft) 98,08 %
21.07.2022 00:00 20,7 C 18,9 C 14,9 C 89 % 1018,8 hPa 0,8 l/m 0,00 h 0,83 h 0 W/m 4,5 km/h (1 Bft) 96,73 %
21.07.2022 01:00 19,8 C 18,4 C 14,5 C 92 % 1018,4 hPa 0,4 l/m 0,00 h 0,00 h 0 W/m 1,4 km/h (1 Bft) 97,80 %
21.07.2022 02:00 19,6 C 18,5 C 14,6 C 93 % 1018,3 hPa 0,2 l/m 0,00 h 0,50 h 0 W/m 0,9 km/h (0 Bft) 98,65 %
21.07.2022 03:00 19,1 C 17,9 C 14,3 C 94 % 1018,4 hPa 0,6 l/m 0,00 h 0,53 h 0 W/m 3,0 km/h (1 Bft) 95,51 %
21.07.2022 04:00 18,7 C 17,8 C 14,2 C 95 % 1018,4 hPa 0,0 l/m 0,00 h 0,07 h 0 W/m 4,7 km/h (1 Bft) 99,57 %
21.07.2022 05:00 18,6 C 17,8 C 14,0 C 96 % 1018,2 hPa 0,0 l/m 0,00 h 0,03 h 2 W/m 6,7 km/h (2 Bft) 96,80 %
21.07.2022 06:00 18,5 C 17,8 C 13,9 C 96 % 1017,9 hPa 0,0 l/m 0,00 h 0,00 h 14 W/m 11,3 km/h (2 Bft) 97,14 %
21.07.2022 07:00 18,6 C 18,2 C 14,1 C 96 % 1018,1 hPa 0,0 l/m 0,00 h 0,00 h 72 W/m 13,9 km/h (3 Bft) 98,58 %
21.07.2022 08:00 19,3 C 20,2 C 16,0 C 93 % 1018,2 hPa 0,0 l/m 0,43 h 0,00 h 196 W/m 16,4 km/h (3 Bft) 96,94 %
21.07.2022 09:00 20,9 C 22,3 C 18,3 C 85 % 1018,4 hPa 0,0 l/m 0,43 h 0,00 h 299 W/m 15,1 km/h (3 Bft) 96,87 %
21.07.2022 10:00 21,7 C 22,2 C 18,6 C 80 % 1018,4 hPa 0,0 l/m 0,40 h 0,00 h 388 W/m 21,0 km/h (4 Bft) 99,22 %
21.07.2022 11:00 22,0 C 21,8 C 18,5 C 78 % 1018,5 hPa 0,0 l/m 0,17 h 0,00 h 209 W/m 21,0 km/h (4 Bft) 97,08 %
21.07.2022 12:00 20,5 C 19,6 C 15,6 C 87 % 1018,9 hPa 0,6 l/m 0,00 h 0,73 h 116 W/m 17,4 km/h (3 Bft) 97,28 %
21.07.2022 13:00 19,8 C 18,7 C 15,1 C 94 % 1019,0 hPa 2,0 l/m 0,00 h 1,00 h 149 W/m 15,5 km/h (3 Bft) 98,79 %
21.07.2022 14:00 19,2 C 18,2 C 14,6 C 96 % 1019,1 hPa 0,2 l/m 0,00 h 0,53 h 81 W/m 13,6 km/h (3 Bft) 97,60 %
21.07.2022 15:00 18,6 C 17,6 C 14,0 C 96 % 1019,3 hPa 1,6 l/m 0,00 h 0,60 h 63 W/m 11,7 km/h (2 Bft) 97,31 %
21.07.2022 16:00 18,6 C 17,8 C 14,3 C 97 % 1019,5 hPa 0,4 l/m 0,00 h 0,27 h 125 W/m 13,7 km/h (3 Bft) 98,15 %
21.07.2022 17:00 18,6 C 17,9 C 14,0 C 96 % 1019,5 hPa 0,0 l/m 0,00 h 0,13 h 65 W/m 14,5 km/h (3 Bft) 98,22 %
21.07.2022 18:00 18,3 C 17,7 C 13,9 C 96 % 1019,6 hPa 0,0 l/m 0,00 h 0,30 h 44 W/m 16,0 km/h (3 Bft) 96,66 %
21.07.2022 19:00 18,0 C 17,2 C 13,5 C 96 % 1019,9 hPa 0,0 l/m 0,00 h 0,07 h 17 W/m 12,9 km/h (3 Bft) 98,58 %
21.07.2022 20:00 17,8 C 17,0 C 13,8 C 96 % 1020,2 hPa 0,0 l/m 0,00 h 0,00 h 10 W/m 17,2 km/h (3 Bft) 97,37 %
21.07.2022 21:00 17,6 C 17,1 C 13,9 C 96 % 1020,6 hPa 0,0 l/m 0,00 h 0,00 h 5 W/m 14,8 km/h (3 Bft) 97,91 %
21.07.2022 22:00 17,5 C 16,7 C 13,7 C 95 % 1021,1 hPa 0,0 l/m 0,00 h 0,00 h 0 W/m 13,5 km/h (3 Bft) 97,08 %
21.07.2022 23:00 17,0 C 16,2 C 12,9 C 96 % 1021,4 hPa 0,0 l/m 0,00 h 0,03 h 0 W/m 10,0 km/h (2 Bft) 98,48 %
22.07.2022 00:00 16,7 C 16,1 C 12,9 C 97 % 1021,6 hPa 0,0 l/m 0,00 h 0,00 h 0 W/m 7,2 km/h (2 Bft) 97,23 %
22.07.2022 01:00 16,4 C 15,8 C 12,9 C 97 % 1021,6 hPa 0,0 l/m 0,00 h 0,00 h 0 W/m 8,5 km/h (2 Bft) 97,94 %
22.07.2022 02:00 16,4 C 15,6 C 12,8 C 96 % 1021,6 hPa 0,0 l/m 0,00 h 0,00 h 0 W/m 5,6 km/h (1 Bft) 97,37 %
22.07.2022 03:00 16,3 C 15,6 C 12,8 C 96 % 1021,5 hPa 0,0 l/m 0,00 h 0,00 h 0 W/m 6,6 km/h (2 Bft) 98,39 %
22.07.2022 04:00 15,9 C 15,5 C 12,3 C 96 % 1021,3 hPa 0,0 l/m 0,00 h 0,00 h 0 W/m 5,9 km/h (2 Bft) 97,17 %
22.07.2022 05:00 15,9 C 15,2 C 11,9 C 96 % 1021,3 hPa 0,2 l/m 0,00 h 0,00 h 0 W/m 4,6 km/h (1 Bft) 97,63 %
22.07.2022 06:00 15,8 C 15,2 C 12,0 C 97 % 1021,3 hPa 0,0 l/m 0,00 h 0,00 h 15 W/m 2,0 km/h (1 Bft) 98,08 %
22.07.2022 07:00 15,8 C 15,7 C 12,6 C 96 % 1021,3 hPa 0,0 l/m 0,00 h 0,00 h 56 W/m 3,8 km/h (1 Bft) 97,04 %
22.07.2022 08:00 16,2 C 16,6 C 13,2 C 95 % 1021,3 hPa 0,0 l/m 0,00 h 0,00 h 108 W/m 2,6 km/h (1 Bft) 97,58 %
22.07.2022 09:00 16,9 C 17,1 C 13,6 C 91 % 1021,2 hPa 0,0 l/m 0,00 h 0,00 h 120 W/m 5,0 km/h (1 Bft) 98,08 %
22.07.2022 10:00 17,4 C 17,5 C 13,9 C 89 % 1021,1 hPa 0,0 l/m 0,00 h 0,00 h 131 W/m 4,5 km/h (1 Bft) 97,51 %
22.07.2022 11:00 17,9 C 18,5 C 14,7 C 85 % 1021,2 hPa 0,0 l/m 0,10 h 0,00 h 262 W/m 4,6 km/h (1 Bft) 97,86 %
22.07.2022 12:00 20,4 C 23,0 C 19,3 C 77 % 1020,8 hPa 0,0 l/m 1,00 h 0,00 h 675 W/m 6,3 km/h (2 Bft) 96,47 %
22.07.2022 13:00 21,5 C 22,2 C 18,0 C 72 % 1020,4 hPa 0,0 l/m 0,30 h 0,00 h 382 W/m 6,3 km/h (2 Bft) 98,57 %
22.07.2022 14:00 22,1 C 23,5 C 18,1 C 71 % 1019,9 hPa 0,0 l/m 0,60 h 0,00 h 503 W/m 6,0 km/h (2 Bft) 98,65 %
22.07.2022 15:00 23,6 C 26,1 C 19,0 C 66 % 1019,4 hPa 0,0 l/m 0,97 h 0,00 h 698 W/m 7,5 km/h (2 Bft) 95,44 %
22.07.2022 16:00 24,2 C 26,8 C 19,4 C 63 % 1019,2 hPa 0,0 l/m 0,97 h 0,00 h 572 W/m 7,3 km/h (2 Bft) 98,87 %
22.07.2022 17:00 23,9 C 24,9 C 19,3 C 64 % 1018,8 hPa 0,0 l/m 0,50 h 0,00 h 338 W/m 8,3 km/h (2 Bft) 98,06 %
22.07.2022 18:00 24,2 C 25,9 C 19,6 C 64 % 1018,1 hPa 0,0 l/m 0,67 h 0,00 h 296 W/m 7,8 km/h (2 Bft) 96,29 %
22.07.2022 19:00 22,9 C 22,4 C 18,3 C 67 % 1018,1 hPa 0,0 l/m 0,00 h 0,00 h 91 W/m 6,0 km/h (2 Bft) 99,29 %
22.07.2022 20:00 21,8 C 20,9 C 17,3 C 69 % 1018,0 hPa 0,0 l/m 0,00 h 0,00 h 36 W/m 5,9 km/h (2 Bft) 97,07 %
22.07.2022 21:00 20,9 C 19,8 C 16,4 C 72 % 1017,9 hPa 0,0 l/m 0,00 h 0,00 h 10 W/m 4,8 km/h (1 Bft) 97,60 %
22.07.2022 22:00 20,3 C 19,1 C 15,7 C 75 % 1018,0 hPa 0,0 l/m 0,00 h 0,00 h 0 W/m 1,9 km/h (1 Bft) 98,59 %
22.07.2022 23:00 19,8 C 18,9 C 15,6 C 77 % 1018,3 hPa 0,0 l/m 0,00 h 0,00 h 0 W/m 2,7 km/h (1 Bft) 96,80 %
23.07.2022 00:00 19,0 C 16,7 C 13,2 C 85 % 1018,7 hPa 1,8 l/m 0,00 h 0,93 h 0 W/m 1,7 km/h (1 Bft) 97,57 %
23.07.2022 01:00 17,8 C 16,1 C 12,6 C 92 % 1018,5 hPa 0,0 l/m 0,00 h 0,07 h 0 W/m 0,9 km/h (0 Bft) 98,22 %
23.07.2022 02:00 17,4 C 16,1 C 12,6 C 95 % 1018,3 hPa 0,2 l/m 0,00 h 0,00 h 0 W/m 0,0 km/h (0 Bft) 96,51 %
23.07.2022 03:00 16,9 C 15,6 C 12,2 C 95 % 1018,2 hPa 0,0 l/m 0,00 h 0,00 h 0 W/m 0,0 km/h (0 Bft) 97,34 %
23.07.2022 04:00 16,6 C 15,4 C 12,0 C 96 % 1018,0 hPa 0,0 l/m 0,00 h 0,00 h 0 W/m 0,0 km/h (0 Bft) 99,40 %
23.07.2022 05:00 15,8 C 14,4 C 11,1 C 96 % 1018,1 hPa 0,0 l/m 0,00 h 0,00 h 5 W/m 0,0 km/h (0 Bft) 94,66 %
23.07.2022 06:00 15,0 C 13,9 C 10,6 C 96 % 1018,4 hPa 0,0 l/m 0,00 h 0,00 h 21 W/m 1,0 km/h (0 Bft) 99,38 %
23.07.2022 07:00 15,1 C 14,7 C 10,9 C 97 % 1018,8 hPa 0,0 l/m 0,00 h 0,00 h 51 W/m 1,4 km/h (1 Bft) 98,44 %
23.07.2022 08:00 16,3 C 18,1 C 12,7 C 98 % 1019,2 hPa 0,0 l/m 0,97 h 0,00 h 291 W/m 2,2 km/h (1 Bft) 95,81 %
23.07.2022 09:00 18,6 C 23,8 C 17,2 C 88 % 1019,4 hPa 0,0 l/m 1,00 h 0,00 h 475 W/m 9,6 km/h (2 Bft) 98,65 %
23.07.2022 10:00 20,1 C 22,2 C 17,0 C 78 % 1019,8 hPa 0,0 l/m 0,97 h 0,00 h 621 W/m 9,9 km/h (2 Bft) 98,43 %
23.07.2022 11:00 21,5 C 24,1 C 18,2 C 70 % 1019,9 hPa 0,0 l/m 1,00 h 0,00 h 767 W/m 10,7 km/h (2 Bft) 97,72 %
23.07.2022 12:00 23,2 C 25,8 C 23,3 C 63 % 1019,8 hPa 0,0 l/m 1,00 h 0,00 h 831 W/m 9,4 km/h (2 Bft) 96,96 %
23.07.2022 13:00 24,4 C 26,2 C 21,4 C 59 % 1019,8 hPa 0,0 l/m 1,00 h 0,00 h 871 W/m 12,0 km/h (2 Bft) 96,94 %
23.07.2022 14:00 25,1 C 28,2 C 21,1 C 57 % 1019,7 hPa 0,0 l/m 1,00 h 0,00 h 892 W/m 13,0 km/h (3 Bft) 99,15 %
23.07.2022 15:00 25,7 C 28,5 C 20,9 C 57 % 1019,7 hPa 0,0 l/m 0,87 h 0,00 h 731 W/m 9,9 km/h (2 Bft) 97,08 %
23.07.2022 16:00 26,5 C 31,4 C 21,7 C 56 % 1019,4 hPa 0,0 l/m 1,00 h 0,00 h 712 W/m 9,9 km/h (2 Bft) 96,86 %
23.07.2022 17:00 26,8 C 31,4 C 22,5 C 54 % 1019,3 hPa 0,0 l/m 0,97 h 0,00 h 544 W/m 11,1 km/h (2 Bft) 99,50 %
23.07.2022 18:00 26,6 C 30,0 C 22,2 C 54 % 1019,1 hPa 0,0 l/m 1,00 h 0,00 h 374 W/m 9,9 km/h (2 Bft) 95,40 %
23.07.2022 19:00 26,1 C 27,2 C 20,6 C 56 % 1019,0 hPa 0,0 l/m 0,77 h 0,00 h 214 W/m 7,3 km/h (2 Bft) 98,39 %
23.07.2022 20:00 24,9 C 23,7 C 19,3 C 60 % 1019,2 hPa 0,0 l/m 0,00 h 0,00 h 40 W/m 3,2 km/h (1 Bft) 98,59 %
23.07.2022 21:00 23,6 C 21,5 C 17,3 C 66 % 1019,4 hPa 0,0 l/m 0,00 h 0,00 h 11 W/m 0,2 km/h (0 Bft) 97,08 %
23.07.2022 22:00 21,5 C 19,4 C 15,8 C 75 % 1019,7 hPa 0,0 l/m 0,00 h 0,00 h 0 W/m 0,0 km/h (0 Bft) 97,74 %
23.07.2022 23:00 20,0 C 18,5 C 15,0 C 79 % 1019,9 hPa 0,0 l/m 0,00 h 0,00 h 0 W/m 0,1 km/h (0 Bft) 99,29 %
24.07.2022 00:00 18,9 C 17,5 C 14,1 C 84 % 1019,9 hPa 0,0 l/m 0,00 h 0,00 h 0 W/m 0,0 km/h (0 Bft) 91,45 %
24.07.2022 01:00 18,1 C 16,8 C 13,4 C 86 % 1019,9 hPa 0,0 l/m 0,00 h 0,00 h 0 W/m 0,0 km/h (0 Bft) 99,43 %
24.07.2022 02:00 17,6 C 16,9 C 13,5 C 89 % 1019,7 hPa 0,0 l/m 0,00 h 0,00 h 0 W/m 1,3 km/h (1 Bft) 97,08 %
24.07.2022 03:00 17,7 C 17,2 C 13,9 C 86 % 1019,6 hPa 0,0 l/m 0,00 h 0,00 h 0 W/m 4,0 km/h (1 Bft) 97,22 %
24.07.2022 04:00 17,7 C 16,7 C 13,8 C 86 % 1019,3 hPa 0,0 l/m 0,00 h 0,00 h 0 W/m 5,4 km/h (1 Bft) 98,41 %
24.07.2022 05:00 17,3 C 16,3 C 13,3 C 87 % 1019,2 hPa 0,0 l/m 0,00 h 0,00 h 6 W/m 6,7 km/h (2 Bft) 97,08 %
24.07.2022 06:00 17,1 C 16,3 C 13,3 C 89 % 1019,3 hPa 0,0 l/m 0,00 h 0,00 h 21 W/m 6,2 km/h (2 Bft) 97,86 %
24.07.2022 07:00 17,4 C 16,9 C 13,7 C 88 % 1019,6 hPa 0,0 l/m 0,00 h 0,00 h 50 W/m 7,4 km/h (2 Bft) 97,24 %
24.07.2022 08:00 19,2 C 21,2 C 15,5 C 83 % 1019,6 hPa 0,0 l/m 0,93 h 0,00 h 306 W/m 7,5 km/h (2 Bft) 99,17 %
24.07.2022 09:00 22,4 C 27,4 C 20,4 C 74 % 1019,7 hPa 0,0 l/m 1,00 h 0,00 h 485 W/m 9,5 km/h (2 Bft) 96,65 %
24.07.2022 10:00 24,7 C 26,4 C 20,7 C 69 % 1019,4 hPa 0,0 l/m 1,00 h 0,00 h 637 W/m 10,4 km/h (2 Bft) 99,43 %
24.07.2022 11:00 26,7 C 28,4 C 22,3 C 63 % 1018,9 hPa 0,0 l/m 1,00 h 0,00 h 765 W/m 14,4 km/h (3 Bft) 95,80 %
24.07.2022 12:00 28,5 C 30,0 C 28,4 C 57 % 1018,5 hPa 0,0 l/m 1,00 h 0,00 h 863 W/m 16,2 km/h (3 Bft) 98,91 %
24.07.2022 13:00 29,5 C 30,6 C 25,4 C 54 % 1018,0 hPa 0,0 l/m 1,00 h 0,00 h 890 W/m 16,6 km/h (3 Bft) 97,33 %
24.07.2022 14:00 30,5 C 32,6 C 25,9 C 51 % 1017,4 hPa 0,0 l/m 1,00 h 0,00 h 869 W/m 16,6 km/h (3 Bft) 97,52 %
24.07.2022 15:00 31,6 C 33,9 C 25,7 C 47 % 1016,6 hPa 0,0 l/m 1,00 h 0,00 h 816 W/m 15,7 km/h (3 Bft) 97,94 %
24.07.2022 16:00 32,2 C 36,4 C 26,5 C 46 % 1015,8 hPa 0,0 l/m 1,00 h 0,00 h 701 W/m 13,0 km/h (3 Bft) 97,71 %
24.07.2022 17:00 32,6 C 37,4 C 27,0 C 45 % 1015,1 hPa 0,0 l/m 1,00 h 0,00 h 571 W/m 12,6 km/h (3 Bft) 97,23 %
24.07.2022 18:00 32,6 C 37,0 C 27,1 C 45 % 1014,3 hPa 0,0 l/m 1,00 h 0,00 h 400 W/m 9,5 km/h (2 Bft) 98,50 %
24.07.2022 19:00 31,8 C 32,5 C 25,6 C 47 % 1013,7 hPa 0,0 l/m 0,73 h 0,00 h 188 W/m 6,7 km/h (2 Bft) 96,51 %
24.07.2022 20:00 30,6 C 28,8 C 23,8 C 50 % 1013,5 hPa 0,0 l/m 0,00 h 0,00 h 42 W/m 3,5 km/h (1 Bft) 96,08 %
24.07.2022 21:00 28,4 C 25,3 C 20,9 C 62 % 1013,3 hPa 0,0 l/m 0,00 h 0,00 h 13 W/m 0,0 km/h (0 Bft) 99,72 %
24.07.2022 22:00 25,9 C 23,4 C 19,4 C 69 % 1013,2 hPa 0,0 l/m 0,00 h 0,00 h 0 W/m 0,0 km/h (0 Bft) 96,87 %
24.07.2022 23:00 24,0 C 22,0 C 18,2 C 75 % 1012,8 hPa 0,0 l/m 0,00 h 0,00 h 0 W/m 0,4 km/h (0 Bft) 97,57 %
Min-Datum _ 18.07.22 18.07.22 18.07.22 19.07.22 20.07.22 - - - - 18.07.22 24.07.22
_ Min-Zeit 06:12 05:00 04:42 17:22 04:36 - - - - 00:00 00:02
Minimum _ 14,3 C 13,3 C 10,6 C 24 % 1012,6 hPa - - - - 0,0 km/h (0 Bft) 12,50 %
Max-Datum _ 19.07.22 19.07.22 19.07.22 23.07.22 18.07.22 21.07.22 18.07.22 21.07.22 18.07.22 21.07.22 18.07.22
_ Max-Zeit 17:00 16:56 12:50 08:06 00:00 13:08 10:54 00:08 14:20 10:50 00:02
Maximum _ 39,1 C 43,3 C 38,9 C 98 % 1024,8 hPa 2,0 l/m 0,07 h 0,07 h 1021 W/m 48,3 km/h
SO (6 Bft)
100,00 %
Durchschnitt _ 23,6 C 23,9 C 19,2 C 69 % 1018,7 hPa #11,0 l/m #61:27 h #7:50 h 364 W/m 7,3 km/h (2 Bft) 97,58 %
© 2022 W. Hausmann